createdAt,value
2018-05-27T03:47:43.704Z,999.4
2018-05-27T03:48:03.900Z,999.4
2018-05-27T03:48:24.147Z,999.4
2018-05-27T03:48:44.340Z,999.4
2018-05-27T03:49:04.529Z,999.4
2018-05-27T03:49:24.745Z,999.4
2018-05-27T03:49:44.989Z,999.4
2018-05-27T03:50:05.169Z,999.4
2018-05-27T03:50:25.374Z,999.4
2018-05-27T03:50:45.568Z,999.4
2018-05-27T03:51:05.782Z,999.4
2018-05-27T03:51:26.019Z,999.4
2018-05-27T03:51:46.206Z,999.5
2018-05-27T03:52:06.404Z,999.4
2018-05-27T03:52:26.683Z,999.4
2018-05-27T03:52:46.865Z,999.4
2018-05-27T04:02:18.186Z,999.5
2018-05-27T04:02:38.431Z,999.5
2018-05-27T04:02:58.615Z,999.5
2018-05-27T04:03:18.812Z,999.5
2018-05-27T04:03:39.055Z,999.5
2018-05-27T04:03:59.253Z,999.5
2018-05-27T04:04:19.442Z,999.5
2018-05-27T04:04:39.590Z,999.5
2018-05-27T04:04:59.752Z,999.6
2018-05-27T04:05:20.106Z,999.5
2018-05-27T04:05:40.288Z,999.5
2018-05-27T04:06:00.484Z,999.5
2018-05-27T04:06:20.649Z,999.5
2018-05-27T04:06:40.862Z,999.5
2018-05-27T04:07:40.872Z,999.6
2018-05-27T04:08:01.033Z,999.6
2018-05-27T04:08:21.243Z,999.6
2018-05-27T04:08:41.434Z,999.6
2018-05-27T04:09:01.661Z,999.5
2018-05-27T04:09:21.829Z,999.6
2018-05-27T04:10:49.395Z,999.6
2018-05-27T04:11:09.886Z,999.6
2018-05-27T04:11:30.116Z,999.5
2018-05-27T04:11:50.320Z,999.5
2018-05-27T04:12:10.486Z,999.5
2018-05-27T04:12:30.721Z,999.5
2018-05-27T04:12:50.882Z,999.5
2018-05-27T04:13:11.023Z,999.5
2018-05-27T04:13:31.218Z,999.5
2018-05-27T04:13:51.408Z,999.5
2018-05-27T04:16:11.391Z,999.4
2018-05-27T04:16:31.606Z,999.5
2018-05-27T04:17:38.129Z,999.5
2018-05-27T04:17:58.328Z,999.5
2018-05-27T04:19:04.769Z,999.5
2018-05-27T04:19:24.986Z,999.4
2018-05-27T04:20:19.126Z,999.5
2018-05-27T04:20:39.299Z,999.5
2018-05-27T04:20:59.495Z,999.5
2018-05-27T04:21:19.651Z,999.5
2018-05-27T04:21:39.827Z,999.5
2018-05-27T04:22:00.010Z,999.5
2018-05-27T04:22:20.141Z,999.5
2018-05-27T04:22:40.288Z,999.5
2018-05-27T04:23:00.434Z,999.5
2018-05-27T04:23:20.614Z,999.5
2018-05-27T04:23:40.779Z,999.5
2018-05-27T04:24:53.389Z,999.4
2018-05-27T04:25:13.552Z,999.5
2018-05-27T04:25:33.677Z,999.5
2018-05-27T04:25:53.824Z,999.5
2018-05-27T04:26:55.580Z,999.5
2018-05-27T04:27:15.724Z,999.5
2018-05-27T04:28:12.812Z,999.5
2018-05-27T04:28:33.160Z,999.5
2018-05-27T04:28:53.392Z,999.5
2018-05-27T04:29:13.557Z,999.5
2018-05-27T04:29:33.737Z,999.5
2018-05-27T04:29:53.887Z,999.5
2018-05-27T04:30:14.082Z,999.5
2018-05-27T04:30:34.242Z,999.5
2018-05-27T04:30:54.475Z,999.5
2018-05-27T04:31:39.089Z,999.5
2018-05-27T04:31:59.264Z,999.5
2018-05-27T04:32:19.421Z,999.5
2018-05-27T04:32:39.623Z,999.5
2018-05-27T04:33:47.879Z,999.5
2018-05-27T04:34:45.805Z,999.5
2018-05-27T04:35:37.390Z,999.5
2018-05-27T04:36:22.436Z,999.5
2018-05-27T04:36:42.639Z,999.5
2018-05-27T04:37:33.348Z,999.5
2018-05-27T04:37:53.516Z,999.5
2018-05-27T04:38:13.695Z,999.5
2018-05-27T04:38:33.903Z,999.5
2018-05-27T04:38:54.048Z,999.5
2018-05-27T04:39:23.046Z,999.5
2018-05-27T04:39:43.179Z,999.5
2018-05-27T04:40:14.635Z,999.6
2018-05-27T04:40:34.813Z,999.5
2018-05-27T04:40:55.007Z,999.5
2018-05-27T04:41:15.273Z,999.5
2018-05-27T04:41:35.525Z,999.5
2018-05-27T04:41:55.775Z,999.5
2018-05-27T04:42:15.958Z,999.5
2018-05-27T04:42:36.222Z,999.5
2018-05-27T04:42:56.453Z,999.5
2018-05-27T04:43:16.776Z,999.5
2018-05-27T04:43:37.040Z,999.5
2018-05-27T04:43:57.311Z,999.6
2018-05-27T04:44:51.998Z,999.5
2018-05-27T04:45:12.181Z,999.5
2018-05-27T04:46:09.401Z,999.5
2018-05-27T04:46:29.633Z,999.6
2018-05-27T04:47:13.859Z,999.6
2018-05-27T04:47:34.005Z,999.6
2018-05-27T04:47:54.202Z,999.6
2018-05-27T04:48:24.896Z,999.6
2018-05-27T04:48:45.107Z,999.6
2018-05-27T04:49:29.311Z,999.6
2018-05-27T04:49:49.597Z,999.6
2018-05-27T04:50:33.878Z,999.6
2018-05-27T04:50:54.048Z,999.6
2018-05-27T04:51:25.462Z,999.6
2018-05-27T04:53:15.061Z,999.6
2018-05-27T04:53:53.780Z,999.6
2018-05-27T04:54:38.927Z,999.6
2018-05-27T04:55:24.080Z,999.6
2018-05-27T04:56:02.808Z,999.5
2018-05-27T04:56:35.076Z,999.5
2018-05-27T04:57:58.938Z,999.5
2018-05-27T04:58:19.121Z,999.6
2018-05-27T04:58:56.982Z,999.5
2018-05-27T04:59:17.331Z,999.5
2018-05-27T05:00:01.518Z,999.5
2018-05-27T05:00:21.768Z,999.6
2018-05-27T05:01:06.105Z,999.6
2018-05-27T05:01:26.244Z,999.6
2018-05-27T05:02:10.529Z,999.6
2018-05-27T05:02:30.920Z,999.6
2018-05-27T05:02:51.518Z,999.6
2018-05-27T05:03:27.988Z,999.6
2018-05-27T05:03:48.116Z,999.7
2018-05-27T05:04:08.280Z,999.6
2018-05-27T05:04:28.557Z,999.7
2018-05-27T05:04:48.736Z,999.6
2018-05-27T05:05:09.006Z,999.6
2018-05-27T05:05:29.156Z,999.7
2018-05-27T05:05:49.360Z,999.6
2018-05-27T05:06:09.561Z,999.6
2018-05-27T05:06:29.770Z,999.7
2018-05-27T05:06:49.989Z,999.6
2018-05-27T05:07:10.194Z,999.6
2018-05-27T05:07:30.437Z,999.6
2018-05-27T05:07:50.675Z,999.6
2018-05-27T05:08:10.854Z,999.6
2018-05-27T05:08:31.037Z,999.6
2018-05-27T05:08:51.244Z,999.6
2018-05-27T05:09:11.429Z,999.6
2018-05-27T05:09:31.752Z,999.6
2018-05-27T05:09:51.882Z,999.7
2018-05-27T05:10:12.119Z,999.6
2018-05-27T05:10:32.274Z,999.6
2018-05-27T05:10:52.446Z,999.6
2018-05-27T05:11:12.652Z,999.7
2018-05-27T05:11:32.838Z,999.7
2018-05-27T05:11:53.102Z,999.7
2018-05-27T05:12:13.335Z,999.7
2018-05-27T05:12:33.638Z,999.7
2018-05-27T05:12:53.790Z,999.7
2018-05-27T05:13:13.959Z,999.7
2018-05-27T05:13:34.258Z,999.7
2018-05-27T05:13:54.431Z,999.7
2018-05-27T05:14:14.739Z,999.7
2018-05-27T05:14:34.882Z,999.7
2018-05-27T05:14:55.192Z,999.7
2018-05-27T05:15:15.330Z,999.7
2018-05-27T05:15:35.540Z,999.7
2018-05-27T05:15:55.664Z,999.7
2018-05-27T05:16:15.865Z,999.7
2018-05-27T05:16:36.096Z,999.7
2018-05-27T05:17:36.065Z,999.7
2018-05-27T05:17:56.250Z,999.6
2018-05-27T05:18:16.426Z,999.6
2018-05-27T05:18:36.580Z,999.6
2018-05-27T05:18:56.746Z,999.6
2018-05-27T05:19:16.899Z,999.6
2018-05-27T05:19:37.078Z,999.6
2018-05-27T05:19:57.273Z,999.6
2018-05-27T05:20:17.505Z,999.6
2018-05-27T05:20:37.743Z,999.6
2018-05-27T05:20:57.911Z,999.6
2018-05-27T05:21:18.059Z,999.6
2018-05-27T05:21:38.226Z,999.6
2018-05-27T05:21:58.402Z,999.7
2018-05-27T05:22:18.694Z,999.6
2018-05-27T05:22:38.822Z,999.7
2018-05-27T05:22:59.051Z,999.7
2018-05-27T05:23:19.246Z,999.7
2018-05-27T05:23:39.434Z,999.7
2018-05-27T05:23:59.613Z,999.7
2018-05-27T05:24:19.808Z,999.7
2018-05-27T05:24:39.929Z,999.7
2018-05-27T05:25:00.110Z,999.6
2018-05-27T05:25:20.274Z,999.6
2018-05-27T05:25:40.411Z,999.7
2018-05-27T05:26:00.612Z,999.6
2018-05-27T05:26:20.755Z,999.6
2018-05-27T05:26:40.957Z,999.6
2018-05-27T05:29:35.779Z,999.7
2018-05-27T05:30:21.016Z,999.6
2018-05-27T05:30:59.728Z,999.6
2018-05-27T05:31:19.918Z,999.6
2018-05-27T05:31:51.319Z,999.6
2018-05-27T05:32:11.467Z,999.7
2018-05-27T05:32:31.624Z,999.7
2018-05-27T05:32:51.814Z,999.7
2018-05-27T05:33:11.948Z,999.6
2018-05-27T05:33:32.156Z,999.7
2018-05-27T05:33:52.330Z,999.6
2018-05-27T05:34:12.522Z,999.6
2018-05-27T05:34:32.669Z,999.7
2018-05-27T05:34:52.849Z,999.7
2018-05-27T05:35:13.020Z,999.7
2018-05-27T05:35:33.232Z,999.7
2018-05-27T05:35:53.473Z,999.7
2018-05-27T05:36:13.680Z,999.6
2018-05-27T05:36:33.899Z,999.7
2018-05-27T05:36:54.104Z,999.7
2018-05-27T05:37:14.274Z,999.7
2018-05-27T05:37:34.464Z,999.7
2018-05-27T05:37:54.594Z,999.7
2018-05-27T05:38:14.771Z,999.6
2018-05-27T05:38:34.938Z,999.7
2018-05-27T05:38:55.094Z,999.7
2018-05-27T05:39:15.289Z,999.7
2018-05-27T05:39:35.485Z,999.7
2018-05-27T05:39:55.623Z,999.7
2018-05-27T05:40:15.788Z,999.7
2018-05-27T05:40:35.949Z,999.7
2018-05-27T05:40:56.201Z,999.7
2018-05-27T05:41:16.377Z,999.7
2018-05-27T05:41:36.597Z,999.7
2018-05-27T05:41:56.806Z,999.7
2018-05-27T05:42:16.966Z,999.7
2018-05-27T05:42:37.141Z,999.7
2018-05-27T05:42:57.387Z,999.7
2018-05-27T05:43:17.555Z,999.7
2018-05-27T05:43:37.690Z,999.7
2018-05-27T05:43:57.859Z,999.7
2018-05-27T05:44:18.048Z,999.7
2018-05-27T05:44:38.198Z,999.7
2018-05-27T05:45:12.053Z,999.7
2018-05-27T05:57:09.926Z,999.8
2018-05-27T05:58:14.272Z,999.7
2018-05-27T05:59:18.835Z,999.7
2018-05-27T05:59:57.538Z,999.7
2018-05-27T06:00:17.687Z,999.7
2018-05-27T06:01:13.528Z,999.7
2018-05-27T06:01:58.770Z,999.7
2018-05-27T06:02:37.453Z,999.7
2018-05-27T06:02:57.665Z,999.7
2018-05-27T06:03:42.004Z,999.7
2018-05-27T06:04:02.205Z,999.7
2018-05-27T06:04:22.405Z,999.7
2018-05-27T06:05:18.737Z,999.7
2018-05-27T06:05:38.929Z,999.7
2018-05-27T06:05:59.075Z,999.7
2018-05-27T06:06:19.390Z,999.7
2018-05-27T06:06:39.617Z,999.7
2018-05-27T06:07:22.393Z,999.7
2018-05-27T06:07:42.602Z,999.7
2018-05-27T06:08:02.748Z,999.7
2018-05-27T06:08:22.979Z,999.7
2018-05-27T06:08:43.149Z,999.7
2018-05-27T06:09:03.318Z,999.7
2018-05-27T06:09:23.529Z,999.8
2018-05-27T06:09:43.683Z,999.8
2018-05-27T06:10:03.877Z,999.8
2018-05-27T06:10:24.032Z,999.8
2018-05-27T06:10:44.169Z,999.7
2018-05-27T06:11:04.359Z,999.8
2018-05-27T06:11:24.509Z,999.7
2018-05-27T06:11:44.770Z,999.8
2018-05-27T06:12:04.962Z,999.8
2018-05-27T06:12:25.163Z,999.8
2018-05-27T06:12:45.360Z,999.8
2018-05-27T06:13:05.576Z,999.8
2018-05-27T06:13:25.794Z,999.8
2018-05-27T06:13:45.955Z,999.8
2018-05-27T06:14:06.136Z,999.8
2018-05-27T06:14:26.273Z,999.8
2018-05-27T06:14:46.439Z,999.8
2018-05-27T06:15:06.636Z,999.8
2018-05-27T06:15:51.930Z,999.8
2018-05-27T06:16:12.124Z,999.8
2018-05-27T06:16:32.344Z,999.8
2018-05-27T06:16:52.539Z,999.8
2018-05-27T06:17:12.777Z,999.8
2018-05-27T06:17:32.955Z,999.8
2018-05-27T06:17:53.170Z,999.8
2018-05-27T06:18:13.338Z,999.8
2018-05-27T06:18:33.578Z,999.8
2018-05-27T06:19:57.102Z,999.8
2018-05-27T06:20:55.135Z,999.8
2018-05-27T06:21:53.244Z,999.8
2018-05-27T06:22:51.372Z,999.8
2018-05-27T06:24:02.360Z,999.8
2018-05-27T07:09:21.516Z,1000.2
2018-05-27T07:11:09.724Z,1000.2
2018-05-27T07:14:17.049Z,1000.2
2018-05-27T07:15:59.763Z,1000.2
2018-05-27T07:17:52.809Z,1000.2
2018-05-27T07:19:34.543Z,1000.2
2018-05-27T07:21:25.596Z,1000.2
2018-05-27T07:23:13.738Z,1000.2
2018-05-27T07:23:33.994Z,1000.2
2018-05-27T07:25:10.946Z,1000.2
2018-05-27T07:26:13.636Z,1000.2
2018-05-27T07:26:33.861Z,1000.2
2018-05-27T07:27:34.498Z,1000.2
2018-05-27T07:27:54.797Z,1000.2
2018-05-27T07:29:19.078Z,1000.2
2018-05-27T07:30:14.249Z,1000.2
2018-05-27T07:31:06.509Z,1000.3
2018-05-27T07:31:50.803Z,1000.3
2018-05-27T07:32:11.081Z,1000.3
2018-05-27T07:33:01.971Z,1000.3
2018-05-27T07:33:22.179Z,1000.3
2018-05-27T07:33:53.666Z,1000.3
2018-05-27T07:34:14.034Z,1000.3
2018-05-27T07:35:04.647Z,1000.3
2018-05-27T07:35:25.023Z,1000.3
2018-05-27T07:35:45.430Z,1000.3
2018-05-27T07:36:14.351Z,1000.3
2018-05-27T07:36:34.589Z,1000.3
2018-05-27T07:36:54.877Z,1000.3
2018-05-27T07:37:15.191Z,1000.3
2018-05-27T07:37:35.521Z,1000.3
2018-05-27T07:37:55.793Z,1000.3
2018-05-27T07:38:16.000Z,1000.3
2018-05-27T07:38:36.189Z,1000.3
2018-05-27T07:38:56.444Z,1000.3
2018-05-27T07:39:35.866Z,1000.3
2018-05-27T07:39:56.155Z,1000.4
2018-05-27T07:40:16.347Z,1000.4
2018-05-27T07:40:36.623Z,1000.3
2018-05-27T07:40:56.798Z,1000.4
2018-05-27T07:41:17.024Z,1000.4
2018-05-27T07:41:37.252Z,1000.4
2018-05-27T07:41:57.463Z,1000.4
2018-05-27T07:42:17.679Z,1000.4
2018-05-27T07:42:37.876Z,1000.4
2018-05-27T07:42:58.433Z,1000.4
2018-05-27T07:43:18.914Z,1000.4
2018-05-27T07:43:39.463Z,1000.3
2018-05-27T07:43:59.978Z,1000.4
2018-05-27T07:44:20.514Z,1000.3
2018-05-27T07:44:41.035Z,1000.3
2018-05-27T07:45:01.537Z,1000.3
2018-05-27T07:45:21.959Z,1000.3
2018-05-27T07:45:42.354Z,1000.4
2018-05-27T07:46:02.885Z,1000.3
2018-05-27T07:46:23.486Z,1000.4
2018-05-27T07:46:44.023Z,1000.3
2018-05-27T07:47:04.416Z,1000.3
2018-05-27T07:47:24.936Z,1000.4
2018-05-27T07:47:45.449Z,1000.3
2018-05-27T07:48:05.916Z,1000.3
2018-05-27T07:48:26.325Z,1000.3
2018-05-27T07:48:46.676Z,1000.3
2018-05-27T07:49:07.100Z,1000.3
2018-05-27T07:49:27.603Z,1000.3
2018-05-27T07:49:48.120Z,1000.3
2018-05-27T07:50:08.615Z,1000.3
2018-05-27T07:50:29.064Z,1000.4
2018-05-27T07:50:49.566Z,1000.4
2018-05-27T07:51:10.096Z,1000.4
2018-05-27T07:51:30.656Z,1000.3
2018-05-27T07:51:51.198Z,1000.3
2018-05-27T07:52:11.702Z,1000.4
2018-05-27T07:52:32.237Z,1000.4
2018-05-27T07:52:52.804Z,1000.4
2018-05-27T07:53:13.199Z,1000.4
2018-05-27T07:53:33.687Z,1000.4
2018-05-27T07:53:54.135Z,1000.4
2018-05-27T07:54:14.589Z,1000.4
2018-05-27T07:54:35.108Z,1000.4
2018-05-27T07:54:55.539Z,1000.4
2018-05-27T07:55:15.936Z,1000.4
2018-05-27T07:55:36.417Z,1000.4
2018-05-27T07:55:56.856Z,1000.4
2018-05-27T07:56:17.275Z,1000.4
2018-05-27T07:56:37.808Z,1000.4
2018-05-27T07:56:58.324Z,1000.4
2018-05-27T07:57:18.786Z,1000.4
2018-05-27T07:57:39.308Z,1000.5
2018-05-27T07:57:59.700Z,1000.5
2018-05-27T07:58:20.205Z,1000.5
2018-05-27T07:58:40.629Z,1000.5
2018-05-27T07:59:01.178Z,1000.5
2018-05-27T07:59:21.677Z,1000.4
2018-05-27T07:59:42.095Z,1000.4
2018-05-27T08:00:02.449Z,1000.4
2018-05-27T08:00:23.019Z,1000.4
2018-05-27T08:00:43.467Z,1000.4
2018-05-27T08:01:04.011Z,1000.5
2018-05-27T08:01:24.514Z,1000.5
2018-05-27T08:01:44.921Z,1000.5
2018-05-27T08:02:05.312Z,1000.5
2018-05-27T08:02:25.714Z,1000.5
2018-05-27T08:02:46.152Z,1000.5
2018-05-27T08:03:06.730Z,1000.5
2018-05-27T08:03:27.198Z,1000.5
2018-05-27T08:03:47.740Z,1000.5
2018-05-27T08:04:08.338Z,1000.5
2018-05-27T08:04:28.863Z,1000.5
2018-05-27T08:04:49.457Z,1000.5
2018-05-27T08:05:09.858Z,1000.5
2018-05-27T08:05:30.315Z,1000.5
2018-05-27T08:05:50.702Z,1000.5
2018-05-27T08:06:11.339Z,1000.5
2018-05-27T08:06:31.774Z,1000.5
2018-05-27T08:06:52.132Z,1000.5
2018-05-27T08:07:12.726Z,1000.5
2018-05-27T08:07:33.136Z,1000.5
2018-05-27T08:07:53.583Z,1000.5
2018-05-27T08:08:13.963Z,1000.5
2018-05-27T08:08:34.487Z,1000.5
2018-05-27T08:08:54.970Z,1000.5
2018-05-27T08:09:15.431Z,1000.5
2018-05-27T08:09:35.915Z,1000.5
2018-05-27T08:09:56.360Z,1000.5
2018-05-27T08:10:16.826Z,1000.5
2018-05-27T08:10:37.311Z,1000.5
2018-05-27T08:10:57.734Z,1000.5
2018-05-27T08:11:18.131Z,1000.5
2018-05-27T08:11:38.469Z,1000.5
2018-05-27T08:11:58.955Z,1000.5
2018-05-27T08:12:19.401Z,1000.5
2018-05-27T08:12:39.657Z,1000.5
2018-05-27T08:12:59.979Z,1000.4
2018-05-27T08:13:20.295Z,1000.5
2018-05-27T08:13:40.644Z,1000.5
2018-05-27T08:14:01.027Z,1000.5
2018-05-27T08:14:21.415Z,1000.5
2018-05-27T08:14:41.814Z,1000.5
2018-05-27T08:15:02.221Z,1000.5
2018-05-27T08:15:22.638Z,1000.4
2018-05-27T08:15:42.938Z,1000.5
2018-05-27T08:16:03.396Z,1000.5
2018-05-27T08:16:23.691Z,1000.5
2018-05-27T08:16:44.120Z,1000.5
2018-05-27T08:17:04.454Z,1000.5
2018-05-27T08:17:24.893Z,1000.5
2018-05-27T08:17:45.237Z,1000.5
2018-05-27T08:18:05.635Z,1000.5
2018-05-27T08:18:26.077Z,1000.5
2018-05-27T08:18:46.469Z,1000.5
2018-05-27T08:19:06.918Z,1000.5
2018-05-27T08:19:27.350Z,1000.5
2018-05-27T08:19:47.841Z,1000.5
2018-05-27T08:20:08.483Z,1000.5
2018-05-27T08:20:28.929Z,1000.5
2018-05-27T08:20:49.471Z,1000.5
2018-05-27T08:21:09.831Z,1000.5
2018-05-27T08:21:30.384Z,1000.6
2018-05-27T08:21:50.798Z,1000.6
2018-05-27T08:22:11.071Z,1000.6
2018-05-27T08:22:31.525Z,1000.6
2018-05-27T08:22:51.961Z,1000.6
2018-05-27T08:23:12.291Z,1000.6
2018-05-27T08:23:32.662Z,1000.6
2018-05-27T08:23:53.083Z,1000.6
2018-05-27T08:24:13.520Z,1000.6
2018-05-27T08:24:34.138Z,1000.7
2018-05-27T08:24:54.725Z,1000.7
2018-05-27T08:25:15.098Z,1000.6
2018-05-27T08:25:35.559Z,1000.7
2018-05-27T08:25:56.132Z,1000.6
2018-05-27T08:26:16.580Z,1000.7
2018-05-27T08:26:37.036Z,1000.7
2018-05-27T08:26:57.457Z,1000.7
2018-05-27T08:27:18.021Z,1000.7
2018-05-27T08:27:38.434Z,1000.7
2018-05-27T08:27:58.793Z,1000.7
2018-05-27T08:28:19.216Z,1000.7
2018-05-27T08:28:39.690Z,1000.7
2018-05-27T08:29:00.063Z,1000.7
2018-05-27T08:29:20.473Z,1000.7
2018-05-27T08:29:41.005Z,1000.7
2018-05-27T08:30:01.415Z,1000.7
2018-05-27T08:30:21.878Z,1000.7
2018-05-27T08:30:42.357Z,1000.7
2018-05-27T08:31:02.766Z,1000.7
2018-05-27T08:31:23.255Z,1000.7
2018-05-27T08:31:43.787Z,1000.8
2018-05-27T08:32:04.362Z,1000.7
2018-05-27T08:32:24.637Z,1000.7
2018-05-27T08:32:44.952Z,1000.7
2018-05-27T08:33:05.473Z,1000.7
2018-05-27T08:33:25.926Z,1000.7
2018-05-27T08:33:46.426Z,1000.7
2018-05-27T08:34:07.025Z,1000.7
2018-05-27T08:34:27.467Z,1000.7
2018-05-27T08:34:47.872Z,1000.8
2018-05-27T08:35:08.470Z,1000.7
2018-05-27T08:35:28.803Z,1000.8
2018-05-27T08:35:49.296Z,1000.7
2018-05-27T08:36:09.826Z,1000.7
2018-05-27T08:36:30.203Z,1000.7
2018-05-27T08:36:50.573Z,1000.7
2018-05-27T08:37:11.048Z,1000.7
2018-05-27T08:37:31.760Z,1000.7
2018-05-27T08:37:52.198Z,1000.7
2018-05-27T08:38:12.671Z,1000.7
2018-05-27T08:38:32.982Z,1000.7
2018-05-27T08:38:53.394Z,1000.7
2018-05-27T08:39:13.829Z,1000.7
2018-05-27T08:39:34.321Z,1000.7
2018-05-27T08:39:54.726Z,1000.7
2018-05-27T08:40:15.193Z,1000.7
2018-05-27T08:40:35.839Z,1000.7
2018-05-27T08:40:56.336Z,1000.7
2018-05-27T08:41:16.896Z,1000.7
2018-05-27T08:41:37.275Z,1000.7
2018-05-27T08:41:57.744Z,1000.7
2018-05-27T08:42:18.116Z,1000.7
2018-05-27T08:42:38.458Z,1000.7
2018-05-27T08:42:59.098Z,1000.7
2018-05-27T08:43:19.522Z,1000.7
2018-05-27T08:43:39.993Z,1000.7
2018-05-27T08:44:00.549Z,1000.7
2018-05-27T08:44:21.032Z,1000.7
2018-05-27T08:44:41.571Z,1000.7
2018-05-27T08:45:02.068Z,1000.7
2018-05-27T08:45:22.583Z,1000.7
2018-05-27T08:45:43.001Z,1000.7
2018-05-27T08:46:03.311Z,1000.8
2018-05-27T08:46:23.859Z,1000.8
2018-05-27T08:46:44.450Z,1000.8
2018-05-27T08:47:04.997Z,1000.8
2018-05-27T08:47:25.641Z,1000.7
2018-05-27T08:47:47.024Z,1000.7
2018-05-27T08:48:07.502Z,1000.7
2018-05-27T08:48:28.142Z,1000.7
2018-05-27T08:48:48.882Z,1000.8
2018-05-27T08:49:09.704Z,1000.8
2018-05-27T08:49:32.044Z,1000.7
2018-05-27T08:49:55.323Z,1000.8
2018-05-27T08:50:15.903Z,1000.8
2018-05-27T08:50:36.393Z,1000.8
2018-05-27T08:50:56.835Z,1000.8
2018-05-27T08:51:17.363Z,1000.8
2018-05-27T08:51:37.893Z,1000.8
2018-05-27T08:51:58.503Z,1000.8
2018-05-27T08:52:19.008Z,1000.8
2018-05-27T08:52:39.517Z,1000.8
2018-05-27T08:52:59.946Z,1000.8
2018-05-27T08:53:20.809Z,1000.8
2018-05-27T08:53:41.212Z,1000.8
2018-05-27T08:54:01.844Z,1000.8
2018-05-27T08:54:22.196Z,1000.9
2018-05-27T08:54:42.756Z,1000.8
2018-05-27T08:55:03.053Z,1000.9
2018-05-27T08:55:23.533Z,1000.8
2018-05-27T08:55:43.935Z,1000.9
2018-05-27T08:56:04.405Z,1000.8
2018-05-27T08:56:24.921Z,1000.8
2018-05-27T08:56:45.433Z,1000.8
2018-05-27T08:57:06.102Z,1000.8
2018-05-27T08:57:26.915Z,1000.9
2018-05-27T08:57:47.745Z,1000.8
2018-05-27T08:58:08.220Z,1000.9
2018-05-27T08:58:28.972Z,1000.8
2018-05-27T08:58:49.625Z,1000.9
2018-05-27T08:59:10.609Z,1000.9
2018-05-27T08:59:31.231Z,1000.9
2018-05-27T08:59:51.936Z,1000.9
2018-05-27T09:00:12.454Z,1000.9
2018-05-27T09:00:32.966Z,1000.9
2018-05-27T09:00:53.346Z,1000.9
2018-05-27T09:01:13.885Z,1000.8
2018-05-27T09:01:34.299Z,1000.9
2018-05-27T09:01:54.770Z,1000.9
2018-05-27T09:02:15.450Z,1000.8
2018-05-27T09:02:35.975Z,1000.9
2018-05-27T09:02:56.574Z,1000.8
2018-05-27T09:03:17.028Z,1000.9
2018-05-27T09:03:37.545Z,1000.8
2018-05-27T09:03:58.064Z,1000.8
2018-05-27T09:04:18.800Z,1000.8
2018-05-27T09:04:39.354Z,1000.8
2018-05-27T09:04:59.819Z,1000.8
2018-05-27T09:05:20.452Z,1000.8
2018-05-27T09:05:40.890Z,1000.8
2018-05-27T09:06:01.297Z,1000.8
2018-05-27T09:06:21.643Z,1000.8
2018-05-27T09:06:42.310Z,1000.8
2018-05-27T09:07:02.803Z,1000.8
2018-05-27T09:07:23.278Z,1000.8
2018-05-27T09:07:43.736Z,1000.8
2018-05-27T09:08:04.473Z,1000.7
2018-05-27T09:08:25.078Z,1000.7
2018-05-27T09:08:45.443Z,1000.7
2018-05-27T09:09:05.958Z,1000.7
2018-05-27T09:09:26.398Z,1000.7
2018-05-27T09:09:47.054Z,1000.7
2018-05-27T09:10:07.807Z,1000.8
2018-05-27T09:10:28.407Z,1000.7
2018-05-27T09:10:49.132Z,1000.7
2018-05-27T09:11:09.786Z,1000.7
2018-05-27T09:11:30.503Z,1000.7
2018-05-27T09:11:51.189Z,1000.7
2018-05-27T09:12:11.954Z,1000.7
2018-05-27T09:12:33.325Z,1000.7
2018-05-27T09:12:53.870Z,1000.7
2018-05-27T09:13:14.441Z,1000.7
2018-05-27T09:13:35.244Z,1000.7
2018-05-27T09:13:56.046Z,1000.7
2018-05-27T09:14:16.798Z,1000.7
2018-05-27T09:14:37.284Z,1000.6
2018-05-27T09:14:58.037Z,1000.7
2018-05-27T09:15:18.841Z,1000.7
2018-05-27T09:15:40.247Z,1000.7
2018-05-27T09:16:00.797Z,1000.7
2018-05-27T09:16:21.259Z,1000.7
2018-05-27T09:16:41.713Z,1000.7
2018-05-27T09:17:02.286Z,1000.7
2018-05-27T09:17:22.739Z,1000.7
2018-05-27T09:17:43.378Z,1000.7
2018-05-27T09:18:03.864Z,1000.7
2018-05-27T09:18:24.621Z,1000.7
2018-05-27T09:18:45.226Z,1000.7
2018-05-27T09:19:06.067Z,1000.6
2018-05-27T09:19:26.589Z,1000.6
2018-05-27T09:19:47.099Z,1000.6
2018-05-27T09:20:07.500Z,1000.7
2018-05-27T09:20:28.093Z,1000.6
2018-05-27T09:20:48.567Z,1000.7
2018-05-27T09:21:09.266Z,1000.7
2018-05-27T09:21:29.747Z,1000.6
2018-05-27T09:21:50.256Z,1000.7
2018-05-27T09:22:10.686Z,1000.7
2018-05-27T09:22:31.326Z,1000.7
2018-05-27T09:22:51.790Z,1000.7
2018-05-27T09:23:12.335Z,1000.7
2018-05-27T09:23:32.954Z,1000.6
2018-05-27T09:23:53.488Z,1000.6
2018-05-27T09:24:14.005Z,1000.7
2018-05-27T09:24:34.503Z,1000.7
2018-05-27T09:24:54.941Z,1000.6
2018-05-27T09:25:15.688Z,1000.6
2018-05-27T09:25:36.284Z,1000.7
2018-05-27T09:25:56.946Z,1000.6
2018-05-27T09:26:17.719Z,1000.7
2018-05-27T09:26:38.196Z,1000.7
2018-05-27T09:26:58.931Z,1000.6
2018-05-27T09:27:19.445Z,1000.6
2018-05-27T09:27:40.194Z,1000.6
2018-05-27T09:28:00.689Z,1000.6
2018-05-27T09:28:21.171Z,1000.6
2018-05-27T09:28:41.728Z,1000.6
2018-05-27T09:29:02.204Z,1000.6
2018-05-27T09:29:22.734Z,1000.6
2018-05-27T09:29:43.251Z,1000.6
2018-05-27T09:30:03.830Z,1000.6
2018-05-27T09:30:24.172Z,1000.7
2018-05-27T09:30:44.543Z,1000.7
2018-05-27T09:31:05.100Z,1000.6
2018-05-27T09:31:25.492Z,1000.6
2018-05-27T09:31:46.058Z,1000.6
2018-05-27T09:32:06.906Z,1000.6
2018-05-27T09:32:27.443Z,1000.6
2018-05-27T09:32:48.074Z,1000.6
2018-05-27T09:33:08.658Z,1000.6
2018-05-27T09:33:29.221Z,1000.6
2018-05-27T09:33:49.735Z,1000.6
2018-05-27T09:34:10.294Z,1000.6
2018-05-27T09:34:30.968Z,1000.6
2018-05-27T09:34:51.534Z,1000.6
2018-05-27T09:35:12.067Z,1000.6
2018-05-27T09:35:32.730Z,1000.6
2018-05-27T09:35:53.501Z,1000.6
2018-05-27T09:36:14.292Z,1000.6
2018-05-27T09:36:35.085Z,1000.6
2018-05-27T09:36:55.952Z,1000.6
2018-05-27T09:37:16.479Z,1000.6
2018-05-27T09:37:37.126Z,1000.6
2018-05-27T09:37:57.708Z,1000.6
2018-05-27T09:38:18.257Z,1000.6
2018-05-27T09:38:38.747Z,1000.5
2018-05-27T09:38:59.488Z,1000.6
2018-05-27T09:39:20.450Z,1000.5
2018-05-27T09:39:40.978Z,1000.6
2018-05-27T09:40:01.898Z,1000.5
2018-05-27T09:40:22.413Z,1000.6
2018-05-27T09:40:43.129Z,1000.5
2018-05-27T09:41:03.747Z,1000.5
2018-05-27T09:41:24.394Z,1000.6
2018-05-27T09:41:44.902Z,1000.6
2018-05-27T09:42:05.611Z,1000.5
2018-05-27T09:42:26.344Z,1000.5
2018-05-27T09:42:46.825Z,1000.6
2018-05-27T09:43:07.495Z,1000.5
2018-05-27T09:43:28.307Z,1000.5
2018-05-27T09:43:49.083Z,1000.5
2018-05-27T09:44:10.002Z,1000.5
2018-05-27T09:44:30.780Z,1000.5
2018-05-27T09:44:51.427Z,1000.5
2018-05-27T09:45:11.993Z,1000.5
2018-05-27T09:45:33.045Z,1000.5
2018-05-27T09:45:53.632Z,1000.6
2018-05-27T09:46:14.272Z,1000.5
2018-05-27T09:46:34.951Z,1000.6
2018-05-27T09:46:55.515Z,1000.5
2018-05-27T09:47:16.146Z,1000.5
2018-05-27T09:47:36.624Z,1000.5
2018-05-27T09:47:57.456Z,1000.5
2018-05-27T09:48:18.066Z,1000.5
2018-05-27T09:48:39.392Z,1000.5
2018-05-27T09:49:00.062Z,1000.5
2018-05-27T09:49:20.510Z,1000.5
2018-05-27T09:49:40.961Z,1000.5
2018-05-27T09:50:01.457Z,1000.5
2018-05-27T09:50:22.046Z,1000.5
2018-05-27T09:50:42.484Z,1000.5
2018-05-27T09:51:02.980Z,1000.5
2018-05-27T09:51:23.570Z,1000.5
2018-05-27T09:51:44.019Z,1000.5
2018-05-27T09:52:04.378Z,1000.5
2018-05-27T09:52:24.882Z,1000.5
2018-05-27T09:52:45.454Z,1000.5
2018-05-27T09:53:06.053Z,1000.4
2018-05-27T09:53:26.561Z,1000.4
2018-05-27T09:53:46.970Z,1000.5
2018-05-27T09:54:07.551Z,1000.4
2018-05-27T09:54:28.087Z,1000.4
2018-05-27T09:54:48.669Z,1000.5
2018-05-27T09:55:09.499Z,1000.4
2018-05-27T09:55:30.000Z,1000.4
2018-05-27T09:55:50.682Z,1000.4
2018-05-27T09:56:11.275Z,1000.4
2018-05-27T09:56:31.676Z,1000.4
2018-05-27T09:56:52.080Z,1000.4
2018-05-27T09:57:12.605Z,1000.4
2018-05-27T09:57:33.945Z,1000.5
2018-05-27T09:57:54.700Z,1000.4
2018-05-27T09:58:15.405Z,1000.4
2018-05-27T09:58:37.095Z,1000.4
2018-05-27T09:58:57.608Z,1000.4
2018-05-27T09:59:18.112Z,1000.4
2018-05-27T09:59:38.670Z,1000.4
2018-05-27T09:59:59.290Z,1000.4
2018-05-27T10:00:19.741Z,1000.4
2018-05-27T10:00:40.191Z,1000.4
2018-05-27T10:01:00.614Z,1000.4
2018-05-27T10:01:21.884Z,1000.4
2018-05-27T10:01:42.339Z,1000.5
2018-05-27T10:02:02.818Z,1000.4
2018-05-27T10:02:23.291Z,1000.4
2018-05-27T10:02:43.768Z,1000.4
2018-05-27T10:03:04.478Z,1000.4